sensor_id;sensor_type;location;lat;lon;timestamp;P1;durP1;ratioP1;P2;durP2;ratioP2
10041;SDS011;5061;49.068;12.058;2022-10-04T00:03:06;1.70;;;1.60;;
10041;SDS011;5061;49.068;12.058;2022-10-04T00:06:43;2.17;;;1.87;;
10041;SDS011;5061;49.068;12.058;2022-10-04T00:13:48;2.30;;;1.67;;
10041;SDS011;5061;49.068;12.058;2022-10-04T00:17:13;1.60;;;1.50;;
10041;SDS011;5061;49.068;12.058;2022-10-04T00:24:18;1.53;;;1.43;;
10041;SDS011;5061;49.068;12.058;2022-10-04T00:42:35;1.30;;;1.20;;
10041;SDS011;5061;49.068;12.058;2022-10-04T00:46:10;1.70;;;1.30;;
10041;SDS011;5061;49.068;12.058;2022-10-04T00:49:39;1.20;;;1.10;;
10041;SDS011;5061;49.068;12.058;2022-10-04T00:53:11;1.13;;;1.03;;
10041;SDS011;5061;49.068;12.058;2022-10-04T01:00:11;1.87;;;1.00;;
10041;SDS011;5061;49.068;12.058;2022-10-04T01:03:37;1.53;;;1.30;;
10041;SDS011;5061;49.068;12.058;2022-10-04T01:07:02;2.90;;;2.07;;
10041;SDS011;5061;49.068;12.058;2022-10-04T01:10:26;3.17;;;2.37;;
10041;SDS011;5061;49.068;12.058;2022-10-04T01:13:56;5.70;;;1.87;;
10041;SDS011;5061;49.068;12.058;2022-10-04T01:17:24;3.73;;;2.37;;
10041;SDS011;5061;49.068;12.058;2022-10-04T01:24:32;2.77;;;2.10;;
10041;SDS011;5061;49.068;12.058;2022-10-04T01:27:56;1.80;;;1.50;;
10041;SDS011;5061;49.068;12.058;2022-10-04T01:31:17;2.53;;;1.70;;
10041;SDS011;5061;49.068;12.058;2022-10-04T01:34:38;2.77;;;1.90;;
10041;SDS011;5061;49.068;12.058;2022-10-04T01:38:01;2.30;;;1.80;;
10041;SDS011;5061;49.068;12.058;2022-10-04T01:41:30;1.40;;;1.30;;
10041;SDS011;5061;49.068;12.058;2022-10-04T01:48:37;1.40;;;1.30;;
10041;SDS011;5061;49.068;12.058;2022-10-04T01:52:14;2.13;;;1.50;;
10041;SDS011;5061;49.068;12.058;2022-10-04T01:55:43;1.30;;;1.10;;
10041;SDS011;5061;49.068;12.058;2022-10-04T01:59:12;1.43;;;1.33;;
10041;SDS011;5061;49.068;12.058;2022-10-04T02:02:49;2.80;;;1.47;;
10041;SDS011;5061;49.068;12.058;2022-10-04T02:06:16;1.70;;;1.60;;
10041;SDS011;5061;49.068;12.058;2022-10-04T02:09:38;2.63;;;1.60;;
10041;SDS011;5061;49.068;12.058;2022-10-04T02:13:03;1.60;;;1.50;;
10041;SDS011;5061;49.068;12.058;2022-10-04T02:16:28;1.17;;;1.07;;
10041;SDS011;5061;49.068;12.058;2022-10-04T02:19:55;1.17;;;0.90;;
10041;SDS011;5061;49.068;12.058;2022-10-04T02:23:17;1.60;;;1.20;;
10041;SDS011;5061;49.068;12.058;2022-10-04T02:26:39;1.20;;;1.10;;
10041;SDS011;5061;49.068;12.058;2022-10-04T02:30:00;1.60;;;1.50;;
10041;SDS011;5061;49.068;12.058;2022-10-04T02:33:22;1.30;;;1.20;;
10041;SDS011;5061;49.068;12.058;2022-10-04T02:36:43;2.93;;;2.07;;
10041;SDS011;5061;49.068;12.058;2022-10-04T02:40:12;1.93;;;1.40;;
10041;SDS011;5061;49.068;12.058;2022-10-04T02:50:37;1.20;;;1.10;;
10041;SDS011;5061;49.068;12.058;2022-10-04T02:57:40;1.67;;;1.43;;
10041;SDS011;5061;49.068;12.058;2022-10-04T03:01:02;1.17;;;1.03;;
10041;SDS011;5061;49.068;12.058;2022-10-04T03:04:24;0.97;;;0.90;;
10041;SDS011;5061;49.068;12.058;2022-10-04T03:07:51;0.80;;;0.80;;
10041;SDS011;5061;49.068;12.058;2022-10-04T03:11:12;0.93;;;0.83;;
10041;SDS011;5061;49.068;12.058;2022-10-04T03:14:35;1.13;;;1.03;;
10041;SDS011;5061;49.068;12.058;2022-10-04T03:17:57;0.90;;;0.90;;
10041;SDS011;5061;49.068;12.058;2022-10-04T03:21:19;1.13;;;1.03;;
10041;SDS011;5061;49.068;12.058;2022-10-04T03:24:43;1.40;;;1.30;;
10041;SDS011;5061;49.068;12.058;2022-10-04T03:28:06;1.30;;;1.20;;
10041;SDS011;5061;49.068;12.058;2022-10-04T03:31:27;1.20;;;1.10;;
10041;SDS011;5061;49.068;12.058;2022-10-04T03:34:56;1.30;;;1.20;;
10041;SDS011;5061;49.068;12.058;2022-10-04T03:38:19;1.30;;;1.20;;
10041;SDS011;5061;49.068;12.058;2022-10-04T03:41:42;1.63;;;1.23;;
10041;SDS011;5061;49.068;12.058;2022-10-04T03:45:07;1.10;;;1.00;;
10041;SDS011;5061;49.068;12.058;2022-10-04T03:48:35;1.10;;;1.00;;
10041;SDS011;5061;49.068;12.058;2022-10-04T03:52:16;2.33;;;1.50;;
10041;SDS011;5061;49.068;12.058;2022-10-04T03:55:59;1.37;;;1.10;;
10041;SDS011;5061;49.068;12.058;2022-10-04T03:59:22;1.93;;;1.10;;
10041;SDS011;5061;49.068;12.058;2022-10-04T04:02:49;1.40;;;1.20;;
10041;SDS011;5061;49.068;12.058;2022-10-04T04:06:16;1.30;;;1.10;;
10041;SDS011;5061;49.068;12.058;2022-10-04T04:10:21;1.37;;;1.27;;
10041;SDS011;5061;49.068;12.058;2022-10-04T04:13:55;1.33;;;1.23;;
10041;SDS011;5061;49.068;12.058;2022-10-04T04:20:46;1.03;;;0.93;;
10041;SDS011;5061;49.068;12.058;2022-10-04T04:24:13;1.50;;;1.10;;
10041;SDS011;5061;49.068;12.058;2022-10-04T04:27:48;1.33;;;1.23;;
10041;SDS011;5061;49.068;12.058;2022-10-04T04:34:52;1.43;;;1.10;;
10041;SDS011;5061;49.068;12.058;2022-10-04T04:38:20;2.10;;;1.77;;
10041;SDS011;5061;49.068;12.058;2022-10-04T04:41:43;1.50;;;1.20;;
10041;SDS011;5061;49.068;12.058;2022-10-04T04:45:05;2.10;;;1.60;;
10041;SDS011;5061;49.068;12.058;2022-10-04T04:48:33;3.57;;;2.30;;
10041;SDS011;5061;49.068;12.058;2022-10-04T04:51:55;5.00;;;3.17;;
10041;SDS011;5061;49.068;12.058;2022-10-04T04:58:40;4.20;;;2.70;;
10041;SDS011;5061;49.068;12.058;2022-10-04T05:02:04;2.50;;;2.13;;
10041;SDS011;5061;49.068;12.058;2022-10-04T05:06:23;4.10;;;2.80;;
10041;SDS011;5061;49.068;12.058;2022-10-04T05:09:48;3.90;;;2.53;;
10041;SDS011;5061;49.068;12.058;2022-10-04T05:13:08;3.43;;;2.37;;
10041;SDS011;5061;49.068;12.058;2022-10-04T05:19:57;2.13;;;1.70;;
10041;SDS011;5061;49.068;12.058;2022-10-04T05:23:19;2.17;;;1.70;;
10041;SDS011;5061;49.068;12.058;2022-10-04T05:26:40;2.60;;;1.50;;
10041;SDS011;5061;49.068;12.058;2022-10-04T05:33:48;2.03;;;1.50;;
10041;SDS011;5061;49.068;12.058;2022-10-04T05:40:47;3.47;;;2.30;;
10041;SDS011;5061;49.068;12.058;2022-10-04T05:44:34;2.40;;;1.77;;
10041;SDS011;5061;49.068;12.058;2022-10-04T05:48:05;1.67;;;1.43;;
10041;SDS011;5061;49.068;12.058;2022-10-04T05:51:29;1.73;;;1.53;;
10041;SDS011;5061;49.068;12.058;2022-10-04T06:24:23;1.53;;;1.43;;
10041;SDS011;5061;49.068;12.058;2022-10-04T06:45:57;1.40;;;1.30;;
10041;SDS011;5061;49.068;12.058;2022-10-04T06:56:36;1.40;;;1.10;;
10041;SDS011;5061;49.068;12.058;2022-10-04T07:00:28;1.40;;;1.10;;
10041;SDS011;5061;49.068;12.058;2022-10-04T07:07:29;3.50;;;1.70;;
10041;SDS011;5061;49.068;12.058;2022-10-04T07:10:57;2.10;;;1.57;;
10041;SDS011;5061;49.068;12.058;2022-10-04T07:14:35;1.73;;;1.30;;
10041;SDS011;5061;49.068;12.058;2022-10-04T07:18:04;2.37;;;1.63;;
10041;SDS011;5061;49.068;12.058;2022-10-04T07:21:34;1.90;;;1.33;;
10041;SDS011;5061;49.068;12.058;2022-10-04T07:28:38;1.87;;;1.47;;
10041;SDS011;5061;49.068;12.058;2022-10-04T07:32:20;1.23;;;1.00;;
10041;SDS011;5061;49.068;12.058;2022-10-04T07:35:49;1.20;;;1.10;;
10041;SDS011;5061;49.068;12.058;2022-10-04T07:39:18;1.00;;;0.90;;
10041;SDS011;5061;49.068;12.058;2022-10-04T07:42:48;1.47;;;1.13;;
10041;SDS011;5061;49.068;12.058;2022-10-04T07:46:16;1.20;;;1.10;;
10041;SDS011;5061;49.068;12.058;2022-10-04T07:49:56;1.10;;;1.00;;
10041;SDS011;5061;49.068;12.058;2022-10-04T07:53:20;2.03;;;1.43;;
10041;SDS011;5061;49.068;12.058;2022-10-04T08:18:47;1.20;;;1.10;;
10041;SDS011;5061;49.068;12.058;2022-10-04T08:22:32;1.30;;;1.20;;
10041;SDS011;5061;49.068;12.058;2022-10-04T08:29:33;1.57;;;1.10;;
10041;SDS011;5061;49.068;12.058;2022-10-04T08:33:08;1.20;;;1.10;;
10041;SDS011;5061;49.068;12.058;2022-10-04T08:40:44;1.63;;;1.47;;
10041;SDS011;5061;49.068;12.058;2022-10-04T09:05:59;1.80;;;1.60;;
10041;SDS011;5061;49.068;12.058;2022-10-04T09:17:27;1.93;;;1.73;;
10041;SDS011;5061;49.068;12.058;2022-10-04T09:21:10;2.07;;;1.70;;
10041;SDS011;5061;49.068;12.058;2022-10-04T09:46:59;1.50;;;1.30;;
10041;SDS011;5061;49.068;12.058;2022-10-04T09:54:34;1.77;;;1.40;;
10041;SDS011;5061;49.068;12.058;2022-10-04T10:05:29;1.43;;;1.33;;
10041;SDS011;5061;49.068;12.058;2022-10-04T10:09:06;1.60;;;1.50;;
10041;SDS011;5061;49.068;12.058;2022-10-04T10:21:15;1.67;;;1.50;;
10041;SDS011;5061;49.068;12.058;2022-10-04T10:32:06;1.63;;;1.53;;
10041;SDS011;5061;49.068;12.058;2022-10-04T10:36:06;2.10;;;1.80;;
10041;SDS011;5061;49.068;12.058;2022-10-04T10:43:46;2.10;;;1.70;;
10041;SDS011;5061;49.068;12.058;2022-10-04T11:28:20;1.47;;;1.37;;
10041;SDS011;5061;49.068;12.058;2022-10-04T11:42:54;1.50;;;1.30;;
10041;SDS011;5061;49.068;12.058;2022-10-04T11:46:34;1.40;;;1.30;;
10041;SDS011;5061;49.068;12.058;2022-10-04T12:09:20;1.50;;;1.40;;
10041;SDS011;5061;49.068;12.058;2022-10-04T12:24:06;1.20;;;1.10;;
10041;SDS011;5061;49.068;12.058;2022-10-04T12:32:03;1.50;;;1.40;;
10041;SDS011;5061;49.068;12.058;2022-10-04T12:56:43;1.13;;;1.03;;
10041;SDS011;5061;49.068;12.058;2022-10-04T13:00:15;1.37;;;0.90;;
10041;SDS011;5061;49.068;12.058;2022-10-04T13:14:28;1.20;;;0.97;;
10041;SDS011;5061;49.068;12.058;2022-10-04T13:18:18;3.27;;;1.30;;
10041;SDS011;5061;49.068;12.058;2022-10-04T13:29:13;0.80;;;0.70;;
10041;SDS011;5061;49.068;12.058;2022-10-04T13:43:47;0.80;;;0.80;;
10041;SDS011;5061;49.068;12.058;2022-10-04T13:47:24;1.30;;;0.87;;
10041;SDS011;5061;49.068;12.058;2022-10-04T13:54:20;1.20;;;0.80;;
10041;SDS011;5061;49.068;12.058;2022-10-04T13:58:15;0.90;;;0.80;;
10041;SDS011;5061;49.068;12.058;2022-10-04T14:12:54;2.50;;;1.10;;
10041;SDS011;5061;49.068;12.058;2022-10-04T14:45:31;0.70;;;0.60;;
10041;SDS011;5061;49.068;12.058;2022-10-04T14:49:36;0.80;;;0.70;;
10041;SDS011;5061;49.068;12.058;2022-10-04T15:15:07;2.67;;;1.07;;
10041;SDS011;5061;49.068;12.058;2022-10-04T15:18:45;1.00;;;0.90;;
10041;SDS011;5061;49.068;12.058;2022-10-04T15:23:05;0.80;;;0.80;;
10041;SDS011;5061;49.068;12.058;2022-10-04T15:26:10;1.87;;;0.80;;
10041;SDS011;5061;49.068;12.058;2022-10-04T15:44:32;2.13;;;1.10;;
10041;SDS011;5061;49.068;12.058;2022-10-04T15:55:29;1.00;;;0.90;;
10041;SDS011;5061;49.068;12.058;2022-10-04T16:06:56;1.10;;;1.00;;
10041;SDS011;5061;49.068;12.058;2022-10-04T16:14:32;1.23;;;0.90;;
10041;SDS011;5061;49.068;12.058;2022-10-04T16:18:11;1.60;;;1.27;;
10041;SDS011;5061;49.068;12.058;2022-10-04T16:32:41;1.20;;;1.00;;
10041;SDS011;5061;49.068;12.058;2022-10-04T16:36:17;1.00;;;0.90;;
10041;SDS011;5061;49.068;12.058;2022-10-04T16:43:22;1.10;;;1.00;;
10041;SDS011;5061;49.068;12.058;2022-10-04T16:46:47;1.43;;;1.10;;
10041;SDS011;5061;49.068;12.058;2022-10-04T16:50:33;1.20;;;1.10;;
10041;SDS011;5061;49.068;12.058;2022-10-04T17:13:00;1.17;;;1.07;;
10041;SDS011;5061;49.068;12.058;2022-10-04T17:16:39;1.10;;;1.00;;
10041;SDS011;5061;49.068;12.058;2022-10-04T17:31:11;1.20;;;1.00;;
10041;SDS011;5061;49.068;12.058;2022-10-04T17:38:12;1.77;;;1.30;;
10041;SDS011;5061;49.068;12.058;2022-10-04T17:46:37;2.40;;;1.80;;
10041;SDS011;5061;49.068;12.058;2022-10-04T17:53:34;1.80;;;1.50;;
10041;SDS011;5061;49.068;12.058;2022-10-04T18:04:26;1.53;;;1.43;;
10041;SDS011;5061;49.068;12.058;2022-10-04T18:08:14;2.43;;;1.90;;
10041;SDS011;5061;49.068;12.058;2022-10-04T18:11:41;1.70;;;1.43;;
10041;SDS011;5061;49.068;12.058;2022-10-04T18:15:07;2.20;;;1.80;;
10041;SDS011;5061;49.068;12.058;2022-10-04T18:18:39;2.63;;;2.00;;
10041;SDS011;5061;49.068;12.058;2022-10-04T18:22:23;1.90;;;1.70;;
10041;SDS011;5061;49.068;12.058;2022-10-04T18:26:06;3.10;;;1.90;;
10041;SDS011;5061;49.068;12.058;2022-10-04T18:29:37;2.20;;;1.87;;
10041;SDS011;5061;49.068;12.058;2022-10-04T18:33:00;2.87;;;2.00;;
10041;SDS011;5061;49.068;12.058;2022-10-04T18:36:26;1.90;;;1.70;;
10041;SDS011;5061;49.068;12.058;2022-10-04T18:40:15;1.47;;;1.37;;
10041;SDS011;5061;49.068;12.058;2022-10-04T18:43:51;2.07;;;1.40;;
10041;SDS011;5061;49.068;12.058;2022-10-04T18:50:57;2.60;;;1.50;;
10041;SDS011;5061;49.068;12.058;2022-10-04T18:55:00;3.40;;;1.50;;
10041;SDS011;5061;49.068;12.058;2022-10-04T19:06:19;1.37;;;1.27;;
10041;SDS011;5061;49.068;12.058;2022-10-04T19:20:59;1.53;;;1.43;;
10041;SDS011;5061;49.068;12.058;2022-10-04T19:42:29;2.53;;;1.90;;
10041;SDS011;5061;49.068;12.058;2022-10-04T19:50:31;2.30;;;1.80;;
10041;SDS011;5061;49.068;12.058;2022-10-04T19:53:41;4.00;;;2.23;;
10041;SDS011;5061;49.068;12.058;2022-10-04T19:57:04;2.53;;;2.00;;
10041;SDS011;5061;49.068;12.058;2022-10-04T20:00:31;2.90;;;1.90;;
10041;SDS011;5061;49.068;12.058;2022-10-04T20:03:54;2.80;;;2.10;;
10041;SDS011;5061;49.068;12.058;2022-10-04T20:07:34;3.47;;;1.90;;
10041;SDS011;5061;49.068;12.058;2022-10-04T20:11:09;2.77;;;1.63;;
10041;SDS011;5061;49.068;12.058;2022-10-04T20:18:00;1.60;;;1.50;;
10041;SDS011;5061;49.068;12.058;2022-10-04T20:21:41;3.47;;;1.83;;
10041;SDS011;5061;49.068;12.058;2022-10-04T20:25:02;1.90;;;1.70;;
10041;SDS011;5061;49.068;12.058;2022-10-04T20:31:52;1.97;;;1.77;;
10041;SDS011;5061;49.068;12.058;2022-10-04T20:35:56;1.70;;;1.50;;
10041;SDS011;5061;49.068;12.058;2022-10-04T20:46:34;4.87;;;2.50;;
10041;SDS011;5061;49.068;12.058;2022-10-04T20:49:57;3.97;;;2.10;;
10041;SDS011;5061;49.068;12.058;2022-10-04T20:53:24;2.13;;;1.93;;
10041;SDS011;5061;49.068;12.058;2022-10-04T20:56:51;1.97;;;1.87;;
10041;SDS011;5061;49.068;12.058;2022-10-04T21:00:22;3.10;;;2.33;;
10041;SDS011;5061;49.068;12.058;2022-10-04T21:03:44;2.73;;;1.90;;
10041;SDS011;5061;49.068;12.058;2022-10-04T21:07:06;1.90;;;1.70;;
10041;SDS011;5061;49.068;12.058;2022-10-04T21:10:34;2.47;;;1.67;;
10041;SDS011;5061;49.068;12.058;2022-10-04T21:13:55;3.20;;;2.10;;
10041;SDS011;5061;49.068;12.058;2022-10-04T21:20:49;3.30;;;2.17;;
10041;SDS011;5061;49.068;12.058;2022-10-04T21:27:52;2.30;;;1.80;;
10041;SDS011;5061;49.068;12.058;2022-10-04T21:31:13;2.30;;;2.10;;
10041;SDS011;5061;49.068;12.058;2022-10-04T21:34:33;2.47;;;2.00;;
10041;SDS011;5061;49.068;12.058;2022-10-04T21:37:54;3.10;;;2.30;;
10041;SDS011;5061;49.068;12.058;2022-10-04T21:41:14;4.17;;;2.60;;
10041;SDS011;5061;49.068;12.058;2022-10-04T21:44:35;2.20;;;2.00;;
10041;SDS011;5061;49.068;12.058;2022-10-04T21:47:56;3.83;;;2.40;;
10041;SDS011;5061;49.068;12.058;2022-10-04T21:51:16;2.37;;;2.17;;
10041;SDS011;5061;49.068;12.058;2022-10-04T21:54:37;3.43;;;1.87;;
10041;SDS011;5061;49.068;12.058;2022-10-04T21:57:58;5.23;;;2.30;;
10041;SDS011;5061;49.068;12.058;2022-10-04T22:01:18;2.50;;;2.03;;
10041;SDS011;5061;49.068;12.058;2022-10-04T22:04:39;2.20;;;2.00;;
10041;SDS011;5061;49.068;12.058;2022-10-04T22:08:00;3.37;;;2.80;;
10041;SDS011;5061;49.068;12.058;2022-10-04T22:11:21;4.37;;;2.50;;
10041;SDS011;5061;49.068;12.058;2022-10-04T22:14:42;3.03;;;2.43;;
10041;SDS011;5061;49.068;12.058;2022-10-04T22:18:02;3.93;;;2.23;;
10041;SDS011;5061;49.068;12.058;2022-10-04T22:21:26;4.00;;;2.27;;
10041;SDS011;5061;49.068;12.058;2022-10-04T22:24:46;4.03;;;2.40;;
10041;SDS011;5061;49.068;12.058;2022-10-04T22:28:20;6.37;;;2.40;;
10041;SDS011;5061;49.068;12.058;2022-10-04T22:31:43;3.30;;;2.27;;
10041;SDS011;5061;49.068;12.058;2022-10-04T22:35:15;2.90;;;2.00;;
10041;SDS011;5061;49.068;12.058;2022-10-04T22:38:38;2.23;;;2.03;;
10041;SDS011;5061;49.068;12.058;2022-10-04T22:42:00;3.30;;;2.70;;
10041;SDS011;5061;49.068;12.058;2022-10-04T22:45:28;3.50;;;2.77;;
10041;SDS011;5061;49.068;12.058;2022-10-04T22:48:52;3.60;;;2.50;;
10041;SDS011;5061;49.068;12.058;2022-10-04T22:52:14;3.13;;;2.30;;
10041;SDS011;5061;49.068;12.058;2022-10-04T22:55:38;2.93;;;2.30;;
10041;SDS011;5061;49.068;12.058;2022-10-04T22:59:00;3.03;;;2.53;;
10041;SDS011;5061;49.068;12.058;2022-10-04T23:02:22;2.73;;;2.30;;
10041;SDS011;5061;49.068;12.058;2022-10-04T23:05:48;2.23;;;2.00;;
10041;SDS011;5061;49.068;12.058;2022-10-04T23:09:09;2.77;;;2.20;;
10041;SDS011;5061;49.068;12.058;2022-10-04T23:12:29;2.53;;;2.33;;
10041;SDS011;5061;49.068;12.058;2022-10-04T23:15:50;3.53;;;2.70;;
10041;SDS011;5061;49.068;12.058;2022-10-04T23:19:12;3.30;;;2.40;;
10041;SDS011;5061;49.068;12.058;2022-10-04T23:22:34;2.33;;;2.10;;
10041;SDS011;5061;49.068;12.058;2022-10-04T23:25:55;2.33;;;2.13;;
10041;SDS011;5061;49.068;12.058;2022-10-04T23:29:16;5.23;;;2.23;;
10041;SDS011;5061;49.068;12.058;2022-10-04T23:32:41;2.40;;;2.00;;
10041;SDS011;5061;49.068;12.058;2022-10-04T23:36:07;2.70;;;2.10;;
10041;SDS011;5061;49.068;12.058;2022-10-04T23:39:33;2.70;;;1.73;;
10041;SDS011;5061;49.068;12.058;2022-10-04T23:42:55;2.70;;;2.00;;
10041;SDS011;5061;49.068;12.058;2022-10-04T23:46:18;2.50;;;1.90;;
10041;SDS011;5061;49.068;12.058;2022-10-04T23:49:41;3.10;;;2.23;;
10041;SDS011;5061;49.068;12.058;2022-10-04T23:53:05;1.83;;;1.73;;
10041;SDS011;5061;49.068;12.058;2022-10-04T23:56:35;3.13;;;2.33;;
10041;SDS011;5061;49.068;12.058;2022-10-04T23:59:57;2.60;;;2.00;;
